sensor_id;sensor_type;location;lat;lon;timestamp;pressure;altitude;pressure_sealevel;temperature;humidity
63447;BME280;49577;49.872;6.190;2023-04-01T00:01:10;97704.70;;;8.54;81.49
63447;BME280;49577;49.872;6.190;2023-04-01T00:03:37;97707.28;;;8.56;81.32
63447;BME280;49577;49.872;6.190;2023-04-01T00:06:02;97709.70;;;8.58;81.00
63447;BME280;49577;49.872;6.190;2023-04-01T00:08:28;97702.11;;;8.60;80.76
63447;BME280;49577;49.872;6.190;2023-04-01T00:10:54;97701.69;;;8.62;80.53
63447;BME280;49577;49.872;6.190;2023-04-01T00:13:20;97702.33;;;8.65;80.43
63447;BME280;49577;49.872;6.190;2023-04-01T00:15:47;97703.11;;;8.66;80.24
63447;BME280;49577;49.872;6.190;2023-04-01T00:18:12;97699.70;;;8.68;80.06
63447;BME280;49577;49.872;6.190;2023-04-01T00:20:39;97693.91;;;8.68;79.97
63447;BME280;49577;49.872;6.190;2023-04-01T00:23:04;97701.16;;;8.69;79.62
63447;BME280;49577;49.872;6.190;2023-04-01T00:25:30;97699.40;;;8.71;79.44
63447;BME280;49577;49.872;6.190;2023-04-01T00:27:56;97700.34;;;8.72;79.51
63447;BME280;49577;49.872;6.190;2023-04-01T00:30:21;97698.13;;;8.73;79.18
63447;BME280;49577;49.872;6.190;2023-04-01T00:32:46;97697.30;;;8.75;79.09
63447;BME280;49577;49.872;6.190;2023-04-01T00:35:12;97697.21;;;8.76;78.95
63447;BME280;49577;49.872;6.190;2023-04-01T00:37:38;97693.86;;;8.77;78.82
63447;BME280;49577;49.872;6.190;2023-04-01T00:40:08;97691.06;;;8.77;78.85
63447;BME280;49577;49.872;6.190;2023-04-01T00:42:42;97694.36;;;8.77;78.92
63447;BME280;49577;49.872;6.190;2023-04-01T00:45:31;97695.18;;;8.77;78.84
63447;BME280;49577;49.872;6.190;2023-04-01T00:47:59;97695.81;;;8.78;78.88
63447;BME280;49577;49.872;6.190;2023-04-01T00:50:28;97697.19;;;8.78;79.08
63447;BME280;49577;49.872;6.190;2023-04-01T00:52:54;97694.61;;;8.76;78.87
63447;BME280;49577;49.872;6.190;2023-04-01T00:55:21;97698.80;;;8.74;78.91
63447;BME280;49577;49.872;6.190;2023-04-01T00:57:48;97688.83;;;8.72;78.90
63447;BME280;49577;49.872;6.190;2023-04-01T01:00:16;97695.17;;;8.72;79.12
63447;BME280;49577;49.872;6.190;2023-04-01T01:02:44;97694.51;;;8.71;79.14
63447;BME280;49577;49.872;6.190;2023-04-01T01:05:14;97688.02;;;8.70;79.15
63447;BME280;49577;49.872;6.190;2023-04-01T01:10:30;97691.31;;;8.66;79.41
63447;BME280;49577;49.872;6.190;2023-04-01T01:15:45;97687.30;;;8.62;79.78
63447;BME280;49577;49.872;6.190;2023-04-01T01:20:56;97683.29;;;8.58;80.09
63447;BME280;49577;49.872;6.190;2023-04-01T01:26:40;97680.85;;;8.52;80.41
63447;BME280;49577;49.872;6.190;2023-04-01T01:34:53;97683.15;;;8.45;80.44
63447;BME280;49577;49.872;6.190;2023-04-01T01:37:25;97681.32;;;8.44;80.55
63447;BME280;49577;49.872;6.190;2023-04-01T01:39:59;97685.20;;;8.44;80.54
63447;BME280;49577;49.872;6.190;2023-04-01T01:42:28;97687.65;;;8.43;80.57
63447;BME280;49577;49.872;6.190;2023-04-01T01:44:56;97683.31;;;8.43;80.42
63447;BME280;49577;49.872;6.190;2023-04-01T01:47:23;97684.40;;;8.43;80.32
63447;BME280;49577;49.872;6.190;2023-04-01T01:49:50;97675.03;;;8.42;80.46
63447;BME280;49577;49.872;6.190;2023-04-01T01:52:18;97677.52;;;8.42;80.50
63447;BME280;49577;49.872;6.190;2023-04-01T01:54:54;97676.01;;;8.41;80.34
63447;BME280;49577;49.872;6.190;2023-04-01T01:57:24;97676.94;;;8.41;80.33
63447;BME280;49577;49.872;6.190;2023-04-01T01:59:53;97674.54;;;8.40;80.63
63447;BME280;49577;49.872;6.190;2023-04-01T02:02:21;97671.39;;;8.38;80.64
63447;BME280;49577;49.872;6.190;2023-04-01T02:04:49;97668.62;;;8.38;80.55
63447;BME280;49577;49.872;6.190;2023-04-01T02:07:22;97665.52;;;8.38;80.56
63447;BME280;49577;49.872;6.190;2023-04-01T02:09:50;97666.55;;;8.35;80.60
63447;BME280;49577;49.872;6.190;2023-04-01T02:12:16;97668.48;;;8.35;80.50
63447;BME280;49577;49.872;6.190;2023-04-01T02:15:01;97671.90;;;8.36;80.56
63447;BME280;49577;49.872;6.190;2023-04-01T02:17:31;97673.48;;;8.36;80.75
63447;BME280;49577;49.872;6.190;2023-04-01T02:20:15;97668.35;;;8.34;80.95
63447;BME280;49577;49.872;6.190;2023-04-01T02:22:48;97671.94;;;8.33;80.85
63447;BME280;49577;49.872;6.190;2023-04-01T02:25:18;97673.83;;;8.31;81.04
63447;BME280;49577;49.872;6.190;2023-04-01T02:27:44;97675.48;;;8.30;81.14
63447;BME280;49577;49.872;6.190;2023-04-01T02:30:12;97677.85;;;8.29;81.25
63447;BME280;49577;49.872;6.190;2023-04-01T02:32:39;97678.23;;;8.29;81.49
63447;BME280;49577;49.872;6.190;2023-04-01T02:35:07;97678.02;;;8.27;81.75
63447;BME280;49577;49.872;6.190;2023-04-01T02:37:34;97676.21;;;8.26;81.81
63447;BME280;49577;49.872;6.190;2023-04-01T02:40:04;97677.00;;;8.25;81.89
63447;BME280;49577;49.872;6.190;2023-04-01T02:42:32;97677.38;;;8.22;82.18
63447;BME280;49577;49.872;6.190;2023-04-01T02:44:57;97674.24;;;8.20;82.19
63447;BME280;49577;49.872;6.190;2023-04-01T02:47:22;97676.19;;;8.18;82.65
63447;BME280;49577;49.872;6.190;2023-04-01T02:49:47;97670.65;;;8.15;82.92
63447;BME280;49577;49.872;6.190;2023-04-01T02:52:13;97673.81;;;8.13;83.11
63447;BME280;49577;49.872;6.190;2023-04-01T02:54:38;97674.57;;;8.12;83.16
63447;BME280;49577;49.872;6.190;2023-04-01T02:57:03;97672.39;;;8.11;83.14
63447;BME280;49577;49.872;6.190;2023-04-01T02:59:29;97670.27;;;8.10;83.26
63447;BME280;49577;49.872;6.190;2023-04-01T03:01:54;97667.08;;;8.08;83.37
63447;BME280;49577;49.872;6.190;2023-04-01T03:04:20;97667.99;;;8.08;83.54
63447;BME280;49577;49.872;6.190;2023-04-01T03:06:45;97662.11;;;8.05;83.56
63447;BME280;49577;49.872;6.190;2023-04-01T03:09:10;97663.02;;;8.05;83.55
63447;BME280;49577;49.872;6.190;2023-04-01T03:11:36;97665.00;;;8.04;83.67
63447;BME280;49577;49.872;6.190;2023-04-01T03:14:01;97660.13;;;8.04;83.79
63447;BME280;49577;49.872;6.190;2023-04-01T03:16:27;97662.59;;;8.04;83.88
63447;BME280;49577;49.872;6.190;2023-04-01T03:18:52;97660.14;;;8.02;84.25
63447;BME280;49577;49.872;6.190;2023-04-01T03:21:23;97659.05;;;8.00;84.29
63447;BME280;49577;49.872;6.190;2023-04-01T03:23:48;97661.53;;;8.00;84.57
63447;BME280;49577;49.872;6.190;2023-04-01T03:26:14;97659.78;;;8.00;84.45
63447;BME280;49577;49.872;6.190;2023-04-01T03:28:40;97661.70;;;8.00;84.50
63447;BME280;49577;49.872;6.190;2023-04-01T03:31:05;97662.52;;;7.98;84.66
63447;BME280;49577;49.872;6.190;2023-04-01T03:33:31;97659.09;;;7.98;84.79
63447;BME280;49577;49.872;6.190;2023-04-01T03:35:57;97662.96;;;7.97;84.92
63447;BME280;49577;49.872;6.190;2023-04-01T03:38:22;97659.02;;;7.97;84.75
63447;BME280;49577;49.872;6.190;2023-04-01T03:40:48;97657.25;;;7.97;84.86
63447;BME280;49577;49.872;6.190;2023-04-01T03:43:13;97658.05;;;7.96;85.00
63447;BME280;49577;49.872;6.190;2023-04-01T03:45:49;97659.55;;;7.95;85.22
63447;BME280;49577;49.872;6.190;2023-04-01T03:48:15;97660.66;;;7.94;85.33
63447;BME280;49577;49.872;6.190;2023-04-01T03:50:41;97655.44;;;7.91;85.53
63447;BME280;49577;49.872;6.190;2023-04-01T03:53:07;97658.41;;;7.92;85.58
63447;BME280;49577;49.872;6.190;2023-04-01T03:55:32;97655.15;;;7.91;85.60
63447;BME280;49577;49.872;6.190;2023-04-01T03:57:58;97651.73;;;7.90;85.56
63447;BME280;49577;49.872;6.190;2023-04-01T04:00:23;97656.29;;;7.90;85.81
63447;BME280;49577;49.872;6.190;2023-04-01T04:02:48;97647.97;;;7.89;85.93
63447;BME280;49577;49.872;6.190;2023-04-01T04:05:14;97650.27;;;7.89;86.05
63447;BME280;49577;49.872;6.190;2023-04-01T04:07:39;97651.23;;;7.90;86.23
63447;BME280;49577;49.872;6.190;2023-04-01T04:10:05;97651.78;;;7.90;86.29
63447;BME280;49577;49.872;6.190;2023-04-01T04:12:31;97650.34;;;7.90;86.33
63447;BME280;49577;49.872;6.190;2023-04-01T04:14:56;97651.89;;;7.90;86.34
63447;BME280;49577;49.872;6.190;2023-04-01T04:17:21;97652.50;;;7.92;86.40
63447;BME280;49577;49.872;6.190;2023-04-01T04:19:47;97656.15;;;7.92;86.29
63447;BME280;49577;49.872;6.190;2023-04-01T04:22:12;97657.91;;;7.91;86.39
63447;BME280;49577;49.872;6.190;2023-04-01T04:24:37;97660.52;;;7.91;86.55
63447;BME280;49577;49.872;6.190;2023-04-01T04:27:03;97661.01;;;7.91;86.59
63447;BME280;49577;49.872;6.190;2023-04-01T04:29:29;97660.48;;;7.92;86.65
63447;BME280;49577;49.872;6.190;2023-04-01T04:31:54;97663.32;;;7.91;86.70
63447;BME280;49577;49.872;6.190;2023-04-01T04:34:19;97664.58;;;7.92;86.89
63447;BME280;49577;49.872;6.190;2023-04-01T04:36:46;97662.39;;;7.94;87.01
63447;BME280;49577;49.872;6.190;2023-04-01T04:39:12;97661.81;;;7.94;86.88
63447;BME280;49577;49.872;6.190;2023-04-01T04:41:37;97661.97;;;7.95;86.84
63447;BME280;49577;49.872;6.190;2023-04-01T04:44:03;97659.83;;;7.95;86.91
63447;BME280;49577;49.872;6.190;2023-04-01T04:46:28;97660.16;;;7.95;86.95
63447;BME280;49577;49.872;6.190;2023-04-01T04:48:54;97663.76;;;7.96;86.84
63447;BME280;49577;49.872;6.190;2023-04-01T04:51:20;97662.85;;;7.96;87.01
63447;BME280;49577;49.872;6.190;2023-04-01T04:53:45;97668.61;;;7.96;87.02
63447;BME280;49577;49.872;6.190;2023-04-01T04:56:11;97667.88;;;7.97;87.12
63447;BME280;49577;49.872;6.190;2023-04-01T04:58:38;97668.10;;;7.98;87.24
63447;BME280;49577;49.872;6.190;2023-04-01T05:01:12;97673.76;;;7.99;87.24
63447;BME280;49577;49.872;6.190;2023-04-01T05:03:37;97672.30;;;8.00;87.36
63447;BME280;49577;49.872;6.190;2023-04-01T05:06:04;97674.16;;;8.01;87.42
63447;BME280;49577;49.872;6.190;2023-04-01T05:08:29;97679.51;;;8.03;87.44
63447;BME280;49577;49.872;6.190;2023-04-01T05:10:55;97681.63;;;8.03;87.41
63447;BME280;49577;49.872;6.190;2023-04-01T05:13:21;97685.70;;;8.04;87.52
63447;BME280;49577;49.872;6.190;2023-04-01T05:15:46;97685.84;;;8.06;87.57
63447;BME280;49577;49.872;6.190;2023-04-01T05:18:11;97688.85;;;8.08;87.46
63447;BME280;49577;49.872;6.190;2023-04-01T05:20:37;97690.06;;;8.10;87.40
63447;BME280;49577;49.872;6.190;2023-04-01T05:23:02;97690.89;;;8.10;87.26
63447;BME280;49577;49.872;6.190;2023-04-01T05:25:27;97688.95;;;8.11;87.41
63447;BME280;49577;49.872;6.190;2023-04-01T05:27:53;97692.37;;;8.11;87.45
63447;BME280;49577;49.872;6.190;2023-04-01T05:30:18;97691.95;;;8.12;87.61
63447;BME280;49577;49.872;6.190;2023-04-01T05:32:43;97695.83;;;8.14;87.67
63447;BME280;49577;49.872;6.190;2023-04-01T05:35:10;97698.94;;;8.16;87.72
63447;BME280;49577;49.872;6.190;2023-04-01T05:37:36;97701.60;;;8.18;87.72
63447;BME280;49577;49.872;6.190;2023-04-01T05:40:03;97700.59;;;8.19;87.62
63447;BME280;49577;49.872;6.190;2023-04-01T05:42:29;97703.30;;;8.20;87.75
63447;BME280;49577;49.872;6.190;2023-04-01T05:44:54;97703.25;;;8.21;87.85
63447;BME280;49577;49.872;6.190;2023-04-01T05:47:21;97708.09;;;8.21;87.88
63447;BME280;49577;49.872;6.190;2023-04-01T05:49:46;97707.73;;;8.23;88.05
63447;BME280;49577;49.872;6.190;2023-04-01T05:52:11;97709.59;;;8.24;88.09
63447;BME280;49577;49.872;6.190;2023-04-01T05:54:37;97715.52;;;8.26;88.22
63447;BME280;49577;49.872;6.190;2023-04-01T05:57:02;97711.77;;;8.27;88.05
63447;BME280;49577;49.872;6.190;2023-04-01T05:59:28;97715.09;;;8.29;88.12
63447;BME280;49577;49.872;6.190;2023-04-01T06:01:53;97718.06;;;8.31;88.16
63447;BME280;49577;49.872;6.190;2023-04-01T06:04:19;97720.52;;;8.33;88.01
63447;BME280;49577;49.872;6.190;2023-04-01T06:06:45;97723.50;;;8.34;87.93
63447;BME280;49577;49.872;6.190;2023-04-01T06:09:25;97730.94;;;8.38;87.95
63447;BME280;49577;49.872;6.190;2023-04-01T06:17:47;97732.76;;;8.43;87.97
63447;BME280;49577;49.872;6.190;2023-04-01T06:26:39;97747.45;;;8.53;88.25
63447;BME280;49577;49.872;6.190;2023-04-01T06:42:17;97750.69;;;8.53;88.53
63447;BME280;49577;49.872;6.190;2023-04-01T06:47:42;97751.23;;;8.63;88.90
63447;BME280;49577;49.872;6.190;2023-04-01T06:50:24;97755.86;;;8.70;88.85
63447;BME280;49577;49.872;6.190;2023-04-01T06:55:36;97759.88;;;8.87;88.76
63447;BME280;49577;49.872;6.190;2023-04-01T06:58:04;97758.94;;;8.92;88.57
63447;BME280;49577;49.872;6.190;2023-04-01T07:00:36;97762.48;;;8.97;88.51
63447;BME280;49577;49.872;6.190;2023-04-01T07:03:29;97764.23;;;9.07;88.62
63447;BME280;49577;49.872;6.190;2023-04-01T07:05:58;97763.42;;;9.18;88.60
63447;BME280;49577;49.872;6.190;2023-04-01T07:08:28;97766.91;;;9.26;88.38
63447;BME280;49577;49.872;6.190;2023-04-01T07:10:58;97771.07;;;9.33;88.08
63447;BME280;49577;49.872;6.190;2023-04-01T07:13:47;97772.20;;;9.33;87.69
63447;BME280;49577;49.872;6.190;2023-04-01T07:16:33;97779.48;;;9.38;88.19
63447;BME280;49577;49.872;6.190;2023-04-01T07:21:48;97775.17;;;9.48;87.76
63447;BME280;49577;49.872;6.190;2023-04-01T07:24:35;97777.57;;;9.56;87.62
63447;BME280;49577;49.872;6.190;2023-04-01T07:27:01;97775.52;;;9.65;87.60
63447;BME280;49577;49.872;6.190;2023-04-01T07:29:27;97779.33;;;9.72;87.22
63447;BME280;49577;49.872;6.190;2023-04-01T07:32:06;97783.50;;;9.78;87.18
63447;BME280;49577;49.872;6.190;2023-04-01T07:37:45;97792.90;;;9.87;86.28
63447;BME280;49577;49.872;6.190;2023-04-01T07:40:32;97796.63;;;9.93;86.24
63447;BME280;49577;49.872;6.190;2023-04-01T07:51:12;97801.06;;;10.47;85.46
63447;BME280;49577;49.872;6.190;2023-04-01T07:56:46;97802.66;;;10.56;84.67
63447;BME280;49577;49.872;6.190;2023-04-01T08:02:10;97806.89;;;10.57;84.14
63447;BME280;49577;49.872;6.190;2023-04-01T08:10:08;97816.15;;;10.88;83.79
63447;BME280;49577;49.872;6.190;2023-04-01T08:15:23;97817.77;;;10.91;82.97
63447;BME280;49577;49.872;6.190;2023-04-01T08:20:56;97817.56;;;10.84;82.19
63447;BME280;49577;49.872;6.190;2023-04-01T08:23:47;97828.08;;;10.76;81.94
63447;BME280;49577;49.872;6.190;2023-04-01T08:26:30;97831.24;;;10.66;81.91
63447;BME280;49577;49.872;6.190;2023-04-01T08:29:04;97830.96;;;10.60;81.67
63447;BME280;49577;49.872;6.190;2023-04-01T08:34:28;97839.48;;;10.60;82.02
63447;BME280;49577;49.872;6.190;2023-04-01T08:37:28;97841.70;;;10.67;81.87
63447;BME280;49577;49.872;6.190;2023-04-01T08:40:02;97845.09;;;10.68;81.40
63447;BME280;49577;49.872;6.190;2023-04-01T08:56:42;97850.02;;;11.11;81.05
63447;BME280;49577;49.872;6.190;2023-04-01T08:59:35;97851.80;;;11.31;80.77
63447;BME280;49577;49.872;6.190;2023-04-01T09:05:30;97853.78;;;11.42;80.26
63447;BME280;49577;49.872;6.190;2023-04-01T09:33:47;97865.36;;;11.71;80.28
63447;BME280;49577;49.872;6.190;2023-04-01T09:44:59;97875.00;;;12.46;79.43
63447;BME280;49577;49.872;6.190;2023-04-01T09:51:17;97877.10;;;12.17;78.32
63447;BME280;49577;49.872;6.190;2023-04-01T09:59:49;97881.14;;;11.65;79.25
63447;BME280;49577;49.872;6.190;2023-04-01T10:08:25;97881.00;;;11.48;80.61
63447;BME280;49577;49.872;6.190;2023-04-01T10:14:47;97881.61;;;11.62;81.08
63447;BME280;49577;49.872;6.190;2023-04-01T10:16:49;97879.20;;;11.99;81.82
63447;BME280;49577;49.872;6.190;2023-04-01T10:19:31;97880.81;;;12.51;81.33
63447;BME280;49577;49.872;6.190;2023-04-01T10:22:28;97880.95;;;13.09;80.19
63447;BME280;49577;49.872;6.190;2023-04-01T10:28:04;97875.64;;;14.90;76.30
63447;BME280;49577;49.872;6.190;2023-04-01T11:17:25;97908.98;;;14.11;73.44
63447;BME280;49577;49.872;6.190;2023-04-01T11:54:04;97956.06;;;12.17;75.01
63447;BME280;49577;49.872;6.190;2023-04-01T11:59:32;97963.70;;;12.91;74.03
63447;BME280;49577;49.872;6.190;2023-04-01T12:04:58;97963.70;;;13.27;72.17
63447;BME280;49577;49.872;6.190;2023-04-01T12:07:50;97964.48;;;13.40;71.94
63447;BME280;49577;49.872;6.190;2023-04-01T12:10:26;97965.80;;;13.65;71.89
63447;BME280;49577;49.872;6.190;2023-04-01T12:16:03;97970.69;;;13.79;69.69
63447;BME280;49577;49.872;6.190;2023-04-01T12:21:27;97982.02;;;13.56;69.78
63447;BME280;49577;49.872;6.190;2023-04-01T12:26:52;97983.18;;;13.23;71.17
63447;BME280;49577;49.872;6.190;2023-04-01T12:30:02;97986.52;;;13.25;72.10
63447;BME280;49577;49.872;6.190;2023-04-01T12:38:31;97991.92;;;13.20;72.22
63447;BME280;49577;49.872;6.190;2023-04-01T12:41:09;97993.11;;;13.11;72.54
63447;BME280;49577;49.872;6.190;2023-04-01T12:49:26;97994.95;;;12.71;73.13
63447;BME280;49577;49.872;6.190;2023-04-01T13:00:38;97995.06;;;12.70;73.95
63447;BME280;49577;49.872;6.190;2023-04-01T13:20:16;98015.84;;;12.21;75.01
63447;BME280;49577;49.872;6.190;2023-04-01T13:25:49;98019.48;;;12.10;73.85
63447;BME280;49577;49.872;6.190;2023-04-01T13:28:23;98021.41;;;11.97;73.81
63447;BME280;49577;49.872;6.190;2023-04-01T13:31:01;98023.09;;;11.90;74.24
63447;BME280;49577;49.872;6.190;2023-04-01T13:33:39;98026.69;;;11.97;74.77
63447;BME280;49577;49.872;6.190;2023-04-01T13:42:05;98028.27;;;12.01;75.11
63447;BME280;49577;49.872;6.190;2023-04-01T14:01:45;98038.75;;;13.16;71.93
63447;BME280;49577;49.872;6.190;2023-04-01T14:09:51;98046.16;;;13.39;71.12
63447;BME280;49577;49.872;6.190;2023-04-01T14:12:35;98045.68;;;13.42;70.15
63447;BME280;49577;49.872;6.190;2023-04-01T14:15:29;98044.67;;;13.31;69.67
63447;BME280;49577;49.872;6.190;2023-04-01T14:18:13;98050.74;;;13.15;70.02
63447;BME280;49577;49.872;6.190;2023-04-01T14:34:31;98056.14;;;12.67;71.68
63447;BME280;49577;49.872;6.190;2023-04-01T14:45:32;98073.48;;;12.59;71.85
63447;BME280;49577;49.872;6.190;2023-04-01T14:48:15;98072.66;;;12.62;72.08
63447;BME280;49577;49.872;6.190;2023-04-01T14:50:45;98071.78;;;12.61;72.11
63447;BME280;49577;49.872;6.190;2023-04-01T14:53:33;98075.25;;;12.57;72.48
63447;BME280;49577;49.872;6.190;2023-04-01T14:56:02;98071.15;;;12.55;72.51
63447;BME280;49577;49.872;6.190;2023-04-01T14:58:49;98073.97;;;12.56;72.70
63447;BME280;49577;49.872;6.190;2023-04-01T15:01:28;98073.70;;;12.52;72.50
63447;BME280;49577;49.872;6.190;2023-04-01T15:04:07;98076.75;;;12.48;72.80
63447;BME280;49577;49.872;6.190;2023-04-01T15:12:26;98080.21;;;12.31;73.63
63447;BME280;49577;49.872;6.190;2023-04-01T15:15:09;98080.90;;;12.25;73.69
63447;BME280;49577;49.872;6.190;2023-04-01T15:17:53;98079.82;;;12.22;73.58
63447;BME280;49577;49.872;6.190;2023-04-01T15:23:27;98082.73;;;12.11;73.65
63447;BME280;49577;49.872;6.190;2023-04-01T15:26:22;98085.12;;;12.08;73.56
63447;BME280;49577;49.872;6.190;2023-04-01T15:31:34;98096.38;;;11.81;73.99
63447;BME280;49577;49.872;6.190;2023-04-01T15:37:04;98107.98;;;11.57;75.33
63447;BME280;49577;49.872;6.190;2023-04-01T15:45:25;98119.15;;;11.30;76.65
63447;BME280;49577;49.872;6.190;2023-04-01T15:48:33;98125.79;;;11.34;76.99
63447;BME280;49577;49.872;6.190;2023-04-01T15:59:30;98137.67;;;11.24;77.81
63447;BME280;49577;49.872;6.190;2023-04-01T16:02:13;98139.31;;;11.18;77.59
63447;BME280;49577;49.872;6.190;2023-04-01T16:04:49;98140.96;;;11.15;77.98
63447;BME280;49577;49.872;6.190;2023-04-01T16:10:17;98146.65;;;11.14;77.86
63447;BME280;49577;49.872;6.190;2023-04-01T16:12:58;98152.33;;;11.11;78.15
63447;BME280;49577;49.872;6.190;2023-04-01T16:23:47;98157.24;;;11.03;78.77
63447;BME280;49577;49.872;6.190;2023-04-01T16:29:07;98161.23;;;10.89;78.91
63447;BME280;49577;49.872;6.190;2023-04-01T16:31:57;98167.70;;;10.83;78.96
63447;BME280;49577;49.872;6.190;2023-04-01T16:34:31;98171.15;;;10.77;79.22
63447;BME280;49577;49.872;6.190;2023-04-01T16:37:21;98172.52;;;10.74;79.55
63447;BME280;49577;49.872;6.190;2023-04-01T16:51:48;98194.35;;;10.49;80.74
63447;BME280;49577;49.872;6.190;2023-04-01T16:57:24;98197.02;;;10.53;80.62
63447;BME280;49577;49.872;6.190;2023-04-01T16:59:55;98203.20;;;10.52;80.62
63447;BME280;49577;49.872;6.190;2023-04-01T17:02:34;98209.17;;;10.53;80.69
63447;BME280;49577;49.872;6.190;2023-04-01T17:05:08;98208.96;;;10.58;80.55
63447;BME280;49577;49.872;6.190;2023-04-01T17:29:09;98237.00;;;10.44;80.21
63447;BME280;49577;49.872;6.190;2023-04-01T17:31:52;98242.35;;;10.45;80.56
63447;BME280;49577;49.872;6.190;2023-04-01T17:37:59;98250.96;;;10.44;81.24
63447;BME280;49577;49.872;6.190;2023-04-01T17:46:03;98263.80;;;10.22;81.05
63447;BME280;49577;49.872;6.190;2023-04-01T17:48:52;98269.44;;;10.17;81.27
63447;BME280;49577;49.872;6.190;2023-04-01T17:51:35;98273.41;;;10.15;81.47
63447;BME280;49577;49.872;6.190;2023-04-01T18:07:56;98299.51;;;9.95;80.74
63447;BME280;49577;49.872;6.190;2023-04-01T18:18:30;98309.16;;;9.79;80.54
63447;BME280;49577;49.872;6.190;2023-04-01T18:21:04;98312.76;;;9.75;80.42
63447;BME280;49577;49.872;6.190;2023-04-01T18:26:50;98318.80;;;9.63;80.56
63447;BME280;49577;49.872;6.190;2023-04-01T18:32:15;98325.46;;;9.53;80.22
63447;BME280;49577;49.872;6.190;2023-04-01T18:37:41;98333.43;;;9.52;80.51
63447;BME280;49577;49.872;6.190;2023-04-01T18:40:20;98341.23;;;9.48;80.21
63447;BME280;49577;49.872;6.190;2023-04-01T18:43:10;98344.60;;;9.45;79.95
63447;BME280;49577;49.872;6.190;2023-04-01T18:45:43;98351.51;;;9.44;80.19
63447;BME280;49577;49.872;6.190;2023-04-01T18:51:17;98355.33;;;9.37;80.02
63447;BME280;49577;49.872;6.190;2023-04-01T18:53:58;98355.97;;;9.31;79.85
63447;BME280;49577;49.872;6.190;2023-04-01T18:56:43;98362.13;;;9.26;79.85
63447;BME280;49577;49.872;6.190;2023-04-01T18:59:32;98365.09;;;9.21;80.10
63447;BME280;49577;49.872;6.190;2023-04-01T19:05:02;98369.11;;;9.14;80.22
63447;BME280;49577;49.872;6.190;2023-04-01T19:13:21;98377.73;;;9.06;80.16
63447;BME280;49577;49.872;6.190;2023-04-01T19:15:58;98379.16;;;9.04;79.97
63447;BME280;49577;49.872;6.190;2023-04-01T19:18:35;98385.02;;;9.02;79.88
63447;BME280;49577;49.872;6.190;2023-04-01T19:23:58;98391.02;;;8.99;79.61
63447;BME280;49577;49.872;6.190;2023-04-01T19:26:33;98396.71;;;9.00;79.51
63447;BME280;49577;49.872;6.190;2023-04-01T19:32:22;98399.58;;;8.99;79.47
63447;BME280;49577;49.872;6.190;2023-04-01T19:37:36;98403.31;;;8.95;79.10
63447;BME280;49577;49.872;6.190;2023-04-01T19:56:19;98415.02;;;8.67;78.92
63447;BME280;49577;49.872;6.190;2023-04-01T19:59:04;98422.02;;;8.61;79.05
63447;BME280;49577;49.872;6.190;2023-04-01T20:01:41;98425.61;;;8.60;79.49
63447;BME280;49577;49.872;6.190;2023-04-01T20:04:13;98431.19;;;8.57;79.78
63447;BME280;49577;49.872;6.190;2023-04-01T20:06:57;98433.36;;;8.56;79.75
63447;BME280;49577;49.872;6.190;2023-04-01T20:12:47;98437.31;;;8.57;79.85
63447;BME280;49577;49.872;6.190;2023-04-01T20:15:33;98441.45;;;8.57;80.07
63447;BME280;49577;49.872;6.190;2023-04-01T20:18:03;98448.92;;;8.57;80.41
63447;BME280;49577;49.872;6.190;2023-04-01T20:20:31;98448.66;;;8.56;80.45
63447;BME280;49577;49.872;6.190;2023-04-01T20:24:02;98454.33;;;8.57;80.38
63447;BME280;49577;49.872;6.190;2023-04-01T20:26:11;98456.67;;;8.59;80.23
63447;BME280;49577;49.872;6.190;2023-04-01T20:31:25;98462.64;;;8.58;80.60
63447;BME280;49577;49.872;6.190;2023-04-01T20:34:07;98464.96;;;8.60;80.67
63447;BME280;49577;49.872;6.190;2023-04-01T20:40:49;98469.73;;;8.64;81.09
63447;BME280;49577;49.872;6.190;2023-04-01T20:45:30;98469.77;;;8.65;80.85
63447;BME280;49577;49.872;6.190;2023-04-01T20:50:53;98478.48;;;8.58;80.20
63447;BME280;49577;49.872;6.190;2023-04-01T20:53:43;98483.55;;;8.55;80.20
63447;BME280;49577;49.872;6.190;2023-04-01T20:59:17;98482.57;;;8.52;80.44
63447;BME280;49577;49.872;6.190;2023-04-01T21:07:11;98495.08;;;8.55;80.86
63447;BME280;49577;49.872;6.190;2023-04-01T21:12:27;98498.27;;;8.56;80.93
63447;BME280;49577;49.872;6.190;2023-04-01T21:18:04;98500.47;;;8.57;80.70
63447;BME280;49577;49.872;6.190;2023-04-01T21:31:53;98516.70;;;8.52;80.44
63447;BME280;49577;49.872;6.190;2023-04-01T21:37:31;98523.80;;;8.52;80.31
63447;BME280;49577;49.872;6.190;2023-04-01T21:48:53;98527.44;;;8.52;80.70
63447;BME280;49577;49.872;6.190;2023-04-01T21:51:56;98535.10;;;8.52;80.77
63447;BME280;49577;49.872;6.190;2023-04-01T22:03:08;98538.48;;;8.49;81.19
63447;BME280;49577;49.872;6.190;2023-04-01T22:05:45;98542.77;;;8.47;81.38
63447;BME280;49577;49.872;6.190;2023-04-01T22:19:19;98557.05;;;8.29;82.13
63447;BME280;49577;49.872;6.190;2023-04-01T22:21:58;98560.51;;;8.30;82.59
63447;BME280;49577;49.872;6.190;2023-04-01T22:35:22;98563.79;;;8.38;83.43
63447;BME280;49577;49.872;6.190;2023-04-01T22:43:01;98563.09;;;8.35;83.77
63447;BME280;49577;49.872;6.190;2023-04-01T22:50:40;98567.69;;;8.26;83.38
63447;BME280;49577;49.872;6.190;2023-04-01T22:53:21;98570.73;;;8.20;83.47
63447;BME280;49577;49.872;6.190;2023-04-01T22:55:50;98571.61;;;8.15;83.54
63447;BME280;49577;49.872;6.190;2023-04-01T22:58:23;98572.64;;;8.13;84.07
63447;BME280;49577;49.872;6.190;2023-04-01T23:00:55;98573.40;;;8.14;84.23
63447;BME280;49577;49.872;6.190;2023-04-01T23:03:34;98573.20;;;8.15;84.13
63447;BME280;49577;49.872;6.190;2023-04-01T23:06:03;98572.64;;;8.15;84.30
63447;BME280;49577;49.872;6.190;2023-04-01T23:11:23;98578.30;;;8.16;84.29
63447;BME280;49577;49.872;6.190;2023-04-01T23:16:32;98581.92;;;8.17;84.31
63447;BME280;49577;49.872;6.190;2023-04-01T23:19:24;98582.14;;;8.16;84.33
63447;BME280;49577;49.872;6.190;2023-04-01T23:25:15;98588.64;;;8.16;84.55
63447;BME280;49577;49.872;6.190;2023-04-01T23:35:55;98595.93;;;8.13;84.72
63447;BME280;49577;49.872;6.190;2023-04-01T23:38:24;98598.54;;;8.13;84.80
63447;BME280;49577;49.872;6.190;2023-04-01T23:40:53;98599.16;;;8.14;84.92
63447;BME280;49577;49.872;6.190;2023-04-01T23:43:39;98601.99;;;8.14;84.65